createdAt,value
2023-04-02T00:00:18.242Z,11.28
2023-04-02T00:03:22.371Z,11.20
2023-04-02T00:06:33.158Z,11.14
2023-04-02T00:09:39.278Z,11.21
2023-04-02T00:13:04.750Z,11.15
2023-04-02T00:16:12.337Z,11.22
2023-04-02T00:19:32.237Z,11.28
2023-04-02T00:22:35.211Z,11.22
2023-04-02T00:25:43.204Z,11.36
2023-04-02T00:28:46.061Z,11.35
2023-04-02T00:31:51.617Z,11.39
2023-04-02T00:34:55.762Z,11.46
2023-04-02T00:37:58.702Z,11.42
2023-04-02T00:41:07.558Z,11.42
2023-04-02T00:44:21.997Z,11.34
2023-04-02T00:47:27.109Z,11.36
2023-04-02T00:50:40.024Z,11.38
2023-04-02T00:53:46.680Z,11.32
2023-04-02T00:56:54.528Z,11.35
2023-04-02T01:00:08.902Z,11.31
2023-04-02T01:03:17.728Z,11.39
2023-04-02T01:06:22.242Z,11.45
2023-04-02T01:09:30.356Z,11.43
2023-04-02T01:12:54.172Z,11.44
2023-04-02T01:16:36.863Z,11.41
2023-04-02T01:20:01.108Z,11.29
2023-04-02T01:23:25.689Z,11.27
2023-04-02T01:26:33.949Z,11.39
2023-04-02T01:29:40.412Z,11.27
2023-04-02T01:32:43.927Z,11.33
2023-04-02T01:35:55.483Z,11.40
2023-04-02T01:39:20.792Z,11.33
2023-04-02T01:42:33.380Z,11.37
2023-04-02T01:45:37.769Z,11.40
2023-04-02T01:48:41.378Z,11.41
2023-04-02T01:51:47.055Z,11.29
2023-04-02T01:54:52.886Z,11.16
2023-04-02T01:57:56.686Z,11.31
2023-04-02T02:01:04.187Z,11.39
2023-04-02T02:04:12.750Z,11.24
2023-04-02T02:07:18.645Z,11.39
2023-04-02T02:10:43.561Z,11.43
2023-04-02T02:13:55.270Z,11.33
2023-04-02T02:17:02.517Z,11.18
2023-04-02T02:20:11.389Z,11.35
2023-04-02T02:23:14.698Z,11.32
2023-04-02T02:26:18.735Z,11.30
2023-04-02T02:29:23.573Z,11.34
2023-04-02T02:32:29.909Z,11.36
2023-04-02T02:36:27.288Z,11.44
2023-04-02T02:39:38.204Z,11.28
2023-04-02T02:42:48.286Z,11.23
2023-04-02T02:45:54.059Z,11.33
2023-04-02T02:48:58.805Z,11.36
2023-04-02T02:52:10.689Z,11.29
2023-04-02T02:55:38.108Z,11.36
2023-04-02T02:58:53.770Z,11.42
2023-04-02T03:02:02.209Z,11.38
2023-04-02T03:05:05.790Z,11.28
2023-04-02T03:08:19.441Z,11.31
2023-04-02T03:11:27.014Z,11.34
2023-04-02T03:14:35.576Z,11.30
2023-04-02T03:17:53.350Z,11.25
2023-04-02T03:21:00.987Z,11.28
2023-04-02T03:24:12.378Z,11.26
2023-04-02T03:27:18.405Z,11.33
2023-04-02T03:30:47.140Z,11.30
2023-04-02T03:34:04.369Z,11.21
2023-04-02T03:37:47.295Z,11.06
2023-04-02T03:41:03.584Z,11.03
2023-04-02T03:44:22.152Z,11.16
2023-04-02T03:47:38.883Z,11.16
2023-04-02T03:50:59.077Z,11.03
2023-04-02T03:54:02.645Z,11.07
2023-04-02T03:57:15.893Z,10.97
2023-04-02T04:00:34.378Z,11.05
2023-04-02T04:03:42.442Z,10.92
2023-04-02T04:06:52.497Z,10.93
2023-04-02T04:09:56.377Z,10.86
2023-04-02T04:13:12.551Z,10.82
2023-04-02T04:16:22.646Z,10.87
2023-04-02T04:19:38.308Z,11.02
2023-04-02T04:22:41.601Z,11.08
2023-04-02T04:26:24.700Z,11.10
2023-04-02T04:29:45.529Z,11.02
2023-04-02T04:33:05.162Z,11.15
2023-04-02T04:36:28.738Z,11.00
2023-04-02T04:40:22.568Z,10.98
2023-04-02T04:43:58.014Z,10.88
2023-04-02T04:47:31.204Z,10.97
2023-04-02T04:50:46.688Z,11.05
2023-04-02T04:53:53.710Z,11.12
2023-04-02T04:57:02.850Z,11.05
2023-04-02T05:00:17.456Z,11.09
2023-04-02T05:03:31.703Z,11.15
2023-04-02T05:06:45.627Z,11.12
2023-04-02T05:10:09.618Z,11.06
2023-04-02T05:13:41.628Z,11.09
2023-04-02T05:17:07.189Z,11.24
2023-04-02T05:20:21.416Z,11.29
2023-04-02T05:24:02.659Z,11.55
2023-04-02T05:27:15.767Z,11.67
2023-04-02T05:30:46.753Z,11.76
2023-04-02T05:33:51.259Z,11.91
2023-04-02T05:36:55.756Z,11.93
2023-04-02T05:40:06.757Z,12.08
2023-04-02T05:43:15.576Z,12.17
2023-04-02T05:46:27.373Z,12.38
2023-04-02T05:49:54.790Z,12.55
2023-04-02T05:53:09.798Z,12.72
2023-04-02T05:56:25.227Z,12.79
2023-04-02T05:59:44.806Z,12.93
2023-04-02T06:03:07.636Z,12.98
2023-04-02T06:06:19.256Z,13.19
2023-04-02T06:09:28.118Z,13.32
2023-04-02T06:12:31.127Z,13.49
2023-04-02T06:15:37.285Z,13.66
2023-04-02T06:18:47.402Z,13.71
2023-04-02T06:21:53.224Z,13.90
2023-04-02T06:25:05.049Z,13.99
2023-04-02T06:28:19.599Z,14.02
2023-04-02T06:31:52.463Z,14.20
2023-04-02T06:34:57.194Z,14.29
2023-04-02T06:38:02.654Z,14.44
2023-04-02T06:41:19.733Z,14.65
2023-04-02T06:44:46.744Z,14.88
2023-04-02T06:48:04.438Z,15.12
2023-04-02T06:51:21.249Z,15.26
2023-04-02T06:54:24.518Z,15.19
2023-04-02T06:57:35.792Z,15.40
2023-04-02T07:00:43.173Z,15.76
2023-04-02T07:03:50.594Z,15.99
2023-04-02T07:07:10.946Z,16.28
2023-04-02T07:10:19.614Z,16.34
2023-04-02T07:13:24.534Z,16.37
2023-04-02T07:16:31.061Z,16.49
2023-04-02T07:19:34.023Z,16.53
2023-04-02T07:22:37.037Z,16.65
2023-04-02T07:25:40.195Z,16.52
2023-04-02T07:28:43.481Z,16.65
2023-04-02T07:31:46.558Z,16.86
2023-04-02T07:34:49.246Z,17.04
2023-04-02T07:37:52.979Z,17.18
2023-04-02T07:40:55.900Z,17.09
2023-04-02T07:43:58.876Z,17.08
2023-04-02T07:47:01.711Z,17.21
2023-04-02T07:50:05.269Z,17.11
2023-04-02T07:53:09.711Z,17.58
2023-04-02T07:56:15.416Z,17.81
2023-04-02T07:59:18.130Z,17.99
2023-04-02T08:02:22.060Z,18.12
2023-04-02T08:05:24.788Z,18.54
2023-04-02T08:08:27.497Z,18.66
2023-04-02T08:11:31.787Z,18.51
2023-04-02T08:14:34.556Z,18.71
2023-04-02T08:17:37.370Z,18.88
2023-04-02T08:20:40.170Z,19.11
2023-04-02T08:23:44.058Z,18.80
2023-04-02T08:26:47.958Z,19.04
2023-04-02T08:29:51.316Z,19.60
2023-04-02T08:32:54.033Z,19.62
2023-04-02T08:35:56.828Z,19.88
2023-04-02T08:38:59.481Z,19.77
2023-04-02T08:42:21.519Z,19.97
2023-04-02T08:45:33.518Z,20.02
2023-04-02T08:48:40.791Z,20.62
2023-04-02T08:51:46.359Z,21.35
2023-04-02T08:54:50.326Z,21.35
2023-04-02T08:58:22.931Z,21.58
2023-04-02T09:02:02.870Z,22.78
2023-04-02T09:05:08.245Z,23.72
2023-04-02T09:08:26.034Z,23.07
2023-04-02T09:11:31.776Z,28.79
2023-04-02T09:15:11.665Z,28.74
2023-04-02T09:18:17.000Z,27.04
2023-04-02T09:21:19.813Z,24.70
2023-04-02T09:24:22.909Z,23.32
2023-04-02T09:27:29.882Z,22.71
2023-04-02T09:30:32.408Z,22.15
2023-04-02T09:33:49.325Z,22.18
2023-04-02T09:36:52.175Z,21.51
2023-04-02T09:40:19.783Z,21.30
2023-04-02T09:43:34.510Z,21.18
2023-04-02T09:46:37.217Z,20.86
2023-04-02T09:49:40.862Z,20.86
2023-04-02T09:52:43.933Z,20.97
2023-04-02T09:55:47.060Z,20.80
2023-04-02T09:59:17.022Z,20.53
2023-04-02T10:02:28.572Z,20.53
2023-04-02T10:05:40.489Z,21.13
2023-04-02T10:08:45.638Z,22.35
2023-04-02T10:11:49.891Z,21.66
2023-04-02T10:14:53.480Z,21.39
2023-04-02T10:18:13.570Z,21.70
2023-04-02T10:21:25.331Z,21.07
2023-04-02T10:24:29.270Z,21.41
2023-04-02T10:27:45.928Z,21.50
2023-04-02T10:31:03.500Z,21.75
2023-04-02T10:34:18.091Z,22.33
2023-04-02T10:37:32.922Z,23.97
2023-04-02T10:40:38.690Z,23.32
2023-04-02T10:43:50.531Z,23.32
2023-04-02T10:47:22.844Z,24.04
2023-04-02T10:50:44.760Z,23.64
2023-04-02T10:53:47.537Z,23.92
2023-04-02T10:56:55.902Z,23.82
2023-04-02T11:00:25.261Z,26.11
2023-04-02T11:03:41.698Z,26.12
2023-04-02T11:06:58.071Z,26.21
2023-04-02T11:10:06.959Z,25.79
2023-04-02T11:13:21.279Z,24.99
2023-04-02T11:16:24.173Z,25.69
2023-04-02T11:19:27.144Z,25.94
2023-04-02T11:22:29.912Z,27.06
2023-04-02T11:25:32.653Z,26.69
2023-04-02T11:28:35.485Z,34.21
2023-04-02T11:31:38.434Z,35.36
2023-04-02T11:34:41.553Z,36.66
2023-04-02T11:37:45.948Z,32.65
2023-04-02T11:40:56.495Z,27.13
2023-04-02T11:44:03.035Z,24.85
2023-04-02T11:47:25.829Z,29.81
2023-04-02T11:50:35.500Z,35.81
2023-04-02T11:53:42.941Z,33.68
2023-04-02T11:56:53.171Z,28.03
2023-04-02T12:00:08.779Z,25.37
2023-04-02T12:03:47.518Z,32.44
2023-04-02T12:07:26.828Z,36.57
2023-04-02T12:10:34.526Z,38.32
2023-04-02T12:13:40.653Z,39.52
2023-04-02T12:16:44.439Z,39.42
2023-04-02T12:19:53.158Z,39.41
2023-04-02T12:22:57.788Z,39.50
2023-04-02T12:26:09.135Z,40.21
2023-04-02T12:29:25.034Z,39.65
2023-04-02T12:32:32.296Z,34.50
2023-04-02T12:35:36.668Z,28.45
2023-04-02T12:38:52.018Z,27.36
2023-04-02T12:41:57.392Z,24.55
2023-04-02T12:45:00.880Z,32.92
2023-04-02T12:48:06.219Z,35.82
2023-04-02T12:51:11.324Z,36.25
2023-04-02T12:54:18.565Z,37.68
2023-04-02T12:57:27.182Z,38.79
2023-04-02T13:00:32.088Z,35.86
2023-04-02T13:03:36.092Z,37.41
2023-04-02T13:06:48.082Z,37.38
2023-04-02T13:09:52.664Z,38.02
2023-04-02T13:12:58.418Z,37.72
2023-04-02T13:16:21.010Z,39.21
2023-04-02T13:19:28.745Z,39.31
2023-04-02T13:22:32.110Z,40.02
2023-04-02T13:25:36.802Z,34.83
2023-04-02T13:28:40.312Z,33.24
2023-04-02T13:31:45.516Z,35.40
2023-04-02T13:34:48.204Z,37.45
2023-04-02T13:37:51.726Z,32.85
2023-04-02T13:40:55.510Z,34.33
2023-04-02T13:44:01.942Z,36.69
2023-04-02T13:47:05.143Z,36.52
2023-04-02T13:50:13.313Z,35.89
2023-04-02T13:53:31.134Z,35.09
2023-04-02T13:56:35.788Z,31.08
2023-04-02T13:59:38.540Z,33.15
2023-04-02T14:02:47.560Z,33.11
2023-04-02T14:06:28.100Z,34.88
2023-04-02T14:10:00.941Z,34.62
2023-04-02T14:13:46.787Z,34.41
2023-04-02T14:17:09.456Z,35.10
2023-04-02T14:20:24.546Z,34.27
2023-04-02T14:23:44.465Z,34.58
2023-04-02T14:26:50.070Z,32.83
2023-04-02T14:30:03.745Z,29.80
2023-04-02T14:33:21.456Z,29.52
2023-04-02T14:36:58.003Z,29.06
2023-04-02T14:40:21.974Z,27.42
2023-04-02T14:43:45.589Z,27.66
2023-04-02T14:46:53.746Z,27.28
2023-04-02T14:50:04.028Z,24.91
2023-04-02T14:53:18.977Z,21.42
2023-04-02T14:56:24.786Z,21.13
2023-04-02T14:59:34.484Z,19.94
2023-04-02T15:02:37.629Z,19.18
2023-04-02T15:05:47.336Z,18.83
2023-04-02T15:09:13.879Z,18.52
2023-04-02T15:12:26.270Z,18.12
2023-04-02T15:16:10.897Z,17.61
2023-04-02T15:19:17.981Z,17.18
2023-04-02T15:22:36.411Z,16.65
2023-04-02T15:25:52.004Z,16.31
2023-04-02T15:29:02.947Z,15.84
2023-04-02T15:32:38.283Z,15.33
2023-04-02T15:35:54.353Z,14.86
2023-04-02T15:39:33.132Z,14.78
2023-04-02T15:42:43.698Z,14.66
2023-04-02T15:46:06.124Z,14.61
2023-04-02T15:49:38.247Z,14.46
2023-04-02T15:53:07.127Z,14.50
2023-04-02T15:56:19.008Z,14.52
2023-04-02T16:00:06.769Z,14.62
2023-04-02T16:03:37.115Z,14.62
2023-04-02T16:07:11.176Z,14.56
2023-04-02T16:10:41.868Z,14.86
2023-04-02T16:13:47.736Z,15.04
2023-04-02T16:16:53.136Z,15.18
2023-04-02T16:20:25.081Z,15.32
2023-04-02T16:23:41.080Z,15.54
2023-04-02T16:26:57.932Z,15.67
2023-04-02T16:30:16.976Z,15.67
2023-04-02T16:33:41.690Z,15.30
2023-04-02T16:36:51.720Z,15.46
2023-04-02T16:40:27.548Z,15.55
2023-04-02T16:43:52.499Z,15.53
2023-04-02T16:47:33.682Z,15.63
2023-04-02T16:50:48.029Z,15.79
2023-04-02T16:54:06.369Z,15.63
2023-04-02T16:57:32.206Z,15.33
2023-04-02T17:00:46.067Z,15.25
2023-04-02T17:04:18.780Z,14.85
2023-04-02T17:07:50.872Z,14.37
2023-04-02T17:11:09.466Z,14.34
2023-04-02T17:14:25.085Z,14.05
2023-04-02T17:17:29.403Z,14.17
2023-04-02T17:20:33.966Z,14.12
2023-04-02T17:24:14.799Z,13.91
2023-04-02T17:27:22.918Z,13.67
2023-04-02T17:30:32.274Z,13.66
2023-04-02T17:33:35.928Z,13.65
2023-04-02T17:36:52.716Z,13.48
2023-04-02T17:40:32.717Z,13.53
2023-04-02T17:43:45.214Z,13.24
2023-04-02T17:46:48.696Z,13.23
2023-04-02T17:50:10.347Z,13.11
2023-04-02T17:53:29.312Z,13.09
2023-04-02T17:57:09.791Z,12.97
2023-04-02T18:00:26.253Z,12.99
2023-04-02T18:03:49.912Z,12.90
2023-04-02T18:07:36.112Z,12.71
2023-04-02T18:10:54.673Z,12.69
2023-04-02T18:14:07.295Z,12.55
2023-04-02T18:17:42.466Z,12.46
2023-04-02T18:21:15.436Z,12.51
2023-04-02T18:24:55.607Z,12.45
2023-04-02T18:28:19.233Z,12.38
2023-04-02T18:31:50.935Z,12.41
2023-04-02T18:35:23.340Z,12.60
2023-04-02T18:38:29.970Z,12.54
2023-04-02T18:42:01.118Z,12.39
2023-04-02T18:45:50.102Z,12.32
2023-04-02T18:49:31.407Z,12.21
2023-04-02T18:52:35.858Z,12.24
2023-04-02T18:55:46.637Z,12.27
2023-04-02T18:59:32.316Z,12.32
2023-04-02T19:02:57.129Z,12.36
2023-04-02T19:06:05.563Z,12.24
2023-04-02T19:09:39.081Z,12.22
2023-04-02T19:12:42.962Z,12.19
2023-04-02T19:16:01.392Z,12.09
2023-04-02T19:19:14.119Z,12.00
2023-04-02T19:22:50.397Z,11.97
2023-04-02T19:26:10.532Z,11.93
2023-04-02T19:29:32.933Z,12.00
2023-04-02T19:33:11.056Z,11.76
2023-04-02T19:36:32.686Z,11.93
2023-04-02T19:39:48.514Z,11.78
2023-04-02T19:42:55.429Z,11.93
2023-04-02T19:46:02.993Z,11.95
2023-04-02T19:49:34.274Z,12.00
2023-04-02T19:52:40.287Z,11.75
2023-04-02T19:55:45.039Z,11.65
2023-04-02T19:58:49.119Z,11.64
2023-04-02T20:01:54.108Z,11.64
2023-04-02T20:04:57.801Z,11.72
2023-04-02T20:08:01.528Z,11.63
2023-04-02T20:11:06.543Z,11.62
2023-04-02T20:14:17.539Z,11.64
2023-04-02T20:17:21.529Z,11.46
2023-04-02T20:20:24.599Z,11.57
2023-04-02T20:23:28.587Z,11.51
2023-04-02T20:26:32.505Z,11.54
2023-04-02T20:29:36.233Z,11.57
2023-04-02T20:32:39.572Z,11.59
2023-04-02T20:35:42.681Z,11.64
2023-04-02T20:38:45.960Z,11.43
2023-04-02T20:41:49.000Z,11.44
2023-04-02T20:44:52.243Z,11.43
2023-04-02T20:47:57.595Z,11.39
2023-04-02T20:55:16.582Z,11.20
2023-04-02T20:58:19.619Z,10.85
2023-04-02T21:01:23.825Z,11.02
2023-04-02T21:04:28.207Z,11.15
2023-04-02T21:07:31.192Z,11.16
2023-04-02T21:10:33.955Z,11.24
2023-04-02T21:13:37.778Z,11.37
2023-04-02T21:16:41.692Z,11.35
2023-04-02T21:19:44.283Z,11.29
2023-04-02T21:22:46.806Z,11.16
2023-04-02T21:26:00.959Z,11.12
2023-04-02T21:29:05.794Z,11.26
2023-04-02T21:32:18.519Z,11.23
2023-04-02T21:35:24.051Z,11.26
2023-04-02T21:38:26.664Z,11.11
2023-04-02T21:41:36.080Z,11.08
2023-04-02T21:44:40.063Z,10.95
2023-04-02T21:47:42.740Z,10.79
2023-04-02T21:50:45.389Z,10.63
2023-04-02T21:53:48.090Z,10.53
2023-04-02T21:56:50.722Z,10.47
2023-04-02T21:59:56.975Z,10.49
2023-04-02T22:02:59.737Z,10.52
2023-04-02T22:06:05.029Z,10.38
2023-04-02T22:09:11.494Z,10.33
2023-04-02T22:12:14.374Z,10.29
2023-04-02T22:15:17.157Z,10.23
2023-04-02T22:18:19.794Z,10.16
2023-04-02T22:21:23.103Z,10.02
2023-04-02T22:24:25.716Z,9.98
2023-04-02T22:27:29.382Z,10.07
2023-04-02T22:30:34.126Z,9.96
2023-04-02T22:33:37.198Z,10.11
2023-04-02T22:36:39.780Z,10.12
2023-04-02T22:39:42.318Z,9.99
2023-04-02T22:42:47.357Z,9.86
2023-04-02T22:45:51.221Z,9.89
2023-04-02T22:48:53.868Z,9.98
2023-04-02T22:51:56.445Z,9.84
2023-04-02T22:54:59.365Z,9.96
2023-04-02T22:58:01.859Z,9.92
2023-04-02T23:01:12.273Z,9.89
2023-04-02T23:04:14.909Z,9.86
2023-04-02T23:07:17.626Z,9.77
2023-04-02T23:10:20.458Z,9.78
2023-04-02T23:13:23.260Z,9.76
2023-04-02T23:16:27.927Z,9.60
2023-04-02T23:19:30.580Z,9.42
2023-04-02T23:22:33.149Z,9.52
2023-04-02T23:25:38.297Z,9.41
2023-04-02T23:28:41.264Z,9.32
2023-04-02T23:31:43.802Z,9.32
2023-04-02T23:34:46.411Z,9.35
2023-04-02T23:37:49.810Z,9.47
2023-04-02T23:40:53.606Z,9.41
2023-04-02T23:43:57.645Z,9.44
2023-04-02T23:47:01.729Z,9.49
2023-04-02T23:50:04.675Z,9.44
2023-04-02T23:53:07.331Z,9.44
2023-04-02T23:56:10.430Z,9.37
2023-04-02T23:59:12.995Z,9.37
